Time;durP1;ratioP1;P1;durP2;ratioP2;P2;SDS_P1;SDS_P2;PMS_P1;PMS_P2;Temp;Humidity;BMP_temperature;BMP_pressure;BME280_temperature;BME280_humidity;BME280_pressure;Samples;Min_cycle;Max_cycle;Signal;HPM_P1;HPM_P2
2022/02/02 00:00:40;;;;;;;10.07;3.10;;;5.80;99.90;;;6.55;100.00;-19949.72;5113059;28;20645;-70
2022/02/02 00:03:10;;;;;;;11.00;2.47;;;5.80;99.90;;;6.54;100.00;-19949.56;5113893;28;20297;-71
2022/02/02 00:05:50;;;;;;;10.33;3.37;;;5.80;99.90;;;6.57;100.00;-19950.59;5112701;28;20231;-72
2022/02/02 00:08:24;;;;;;;10.50;2.97;;;5.80;99.90;;;6.63;100.00;-19952.63;5113034;28;20781;-73
2022/02/02 00:11:31;;;;;;;8.13;2.77;;;5.80;99.90;;;6.71;100.00;-19955.38;5112900;28;20243;-73
2022/02/02 00:14:02;;;;;;;8.80;3.43;;;5.90;99.90;;;6.78;100.00;-19957.75;5112942;28;20632;-74
2022/02/02 00:16:46;;;;;;;11.90;2.77;;;6.00;99.90;;;6.76;100.00;-19957.09;5098918;28;20702;-75
2022/02/02 00:19:23;;;;;;;9.57;2.60;;;5.90;99.90;;;6.56;100.00;-19950.09;5092335;28;20899;-71
2022/02/02 00:21:57;;;;;;;16.63;2.90;;;5.90;99.90;;;6.68;100.00;-19954.19;5092180;28;20744;-74
2022/02/02 00:24:32;;;;;;;13.57;2.93;;;5.90;99.90;;;6.62;100.00;-19952.31;5092649;28;20258;-72
2022/02/02 00:27:05;;;;;;;8.50;2.57;;;5.90;99.90;;;6.74;100.00;-19956.41;5092721;28;20229;-75
2022/02/02 00:29:38;;;;;;;8.20;2.67;;;5.90;99.90;;;6.77;100.00;-19957.44;5092096;28;20602;-76
2022/02/02 00:32:15;;;;;;;10.13;2.43;;;5.90;99.90;;;6.82;100.00;-19959.13;5092113;28;20263;-75
2022/02/02 00:34:43;;;;;;;10.50;2.97;;;6.00;99.90;;;6.92;100.00;-19962.56;5092216;28;20310;-75
2022/02/02 00:37:13;;;;;;;13.60;2.70;;;6.00;99.90;;;6.89;100.00;-19961.53;5091950;28;20313;-76
2022/02/02 00:39:42;;;;;;;11.60;2.87;;;6.10;99.90;;;6.91;100.00;-19962.03;5092003;28;20188;-75
2022/02/02 00:42:10;;;;;;;8.10;2.77;;;6.10;99.90;;;6.91;100.00;-19962.03;5102990;28;20632;-74
2022/02/02 00:44:45;;;;;;;9.80;2.20;;;6.10;99.90;;;6.83;100.00;-19959.47;5112172;28;20349;-71
2022/02/02 00:47:20;;;;;;;9.73;2.73;;;6.10;99.90;;;6.95;100.00;-19963.56;5112153;28;20326;-73
2022/02/02 00:49:49;;;;;;;12.40;2.47;;;6.10;99.90;;;6.91;100.00;-19962.03;5112338;28;20314;-75
2022/02/02 00:52:17;;;;;;;9.50;2.37;;;6.10;99.90;;;6.70;100.00;-19955.03;5113814;28;20229;-74
2022/02/02 00:54:47;;;;;;;10.50;2.20;;;6.00;99.90;;;6.84;100.00;-19959.81;5112097;28;20230;-74
2022/02/02 00:57:15;;;;;;;8.13;2.70;;;6.00;99.90;;;6.68;100.00;-19954.34;5112455;28;20241;-75
2022/02/02 00:59:45;;;;;;;11.90;2.77;;;6.00;99.90;;;6.73;100.00;-19955.88;5111908;28;20227;-74
2022/02/02 01:02:13;;;;;;;8.07;3.03;;;6.00;99.90;;;6.65;100.00;-19953.16;5112238;28;20333;-74
2022/02/02 01:04:41;;;;;;;8.47;2.33;;;6.00;99.90;;;6.79;100.00;-19958.13;5111232;28;20233;-74
2022/02/02 01:07:16;;;;;;;13.00;3.00;;;6.00;99.90;;;6.67;100.00;-19954.00;5112161;28;20243;-74
2022/02/02 01:09:48;;;;;;;11.73;2.47;;;6.00;99.90;;;6.68;100.00;-19954.34;5111675;28;20705;-73
2022/02/02 01:20:52;;;;;;;11.03;2.43;;;6.00;99.90;;;6.77;100.00;-19957.25;5091892;28;20648;-71
2022/02/02 01:28:53;;;;;;;12.10;2.40;;;5.90;99.90;;;6.70;100.00;-19955.03;5092359;28;20405;-73
2022/02/02 01:31:23;;;;;;;10.07;2.10;;;5.90;99.90;;;6.82;100.00;-19959.13;5091791;28;20314;-72
2022/02/02 01:33:51;;;;;;;11.50;2.63;;;6.00;99.90;;;6.78;100.00;-19957.75;5091616;28;20235;-72
2022/02/02 01:36:20;;;;;;;12.70;2.40;;;6.00;99.90;;;6.84;100.00;-19959.81;5091725;28;20246;-73
2022/02/02 01:38:50;;;;;;;10.00;2.93;;;6.00;99.90;;;6.83;100.00;-19959.47;5104503;28;20256;-71
2022/02/02 01:41:32;;;;;;;9.87;2.60;;;6.10;99.90;;;6.86;100.00;-19960.50;5111437;28;20223;-70
2022/02/02 01:44:09;;;;;;;9.13;2.03;;;6.10;99.90;;;6.93;100.00;-19962.91;5111626;28;20230;-72
2022/02/02 01:46:39;;;;;;;9.33;2.53;;;6.10;99.90;;;7.03;100.00;-19966.16;5111072;28;20283;-72
2022/02/02 01:54:55;;;;;;;8.07;2.33;;;6.00;99.90;;;7.01;100.00;-19965.63;5110842;28;20180;-71
2022/02/02 01:57:46;;;;;;;10.80;2.30;;;6.10;99.90;;;7.03;100.00;-19966.31;5111301;28;20275;-71
2022/02/02 02:00:15;;;;;;;8.20;1.83;;;6.20;99.90;;;6.91;100.00;-19962.22;5110106;28;20293;-72
2022/02/02 02:02:45;;;;;;;9.17;1.97;;;6.10;99.90;;;7.01;100.00;-19965.63;5110492;28;20235;-71
2022/02/02 02:05:18;;;;;;;14.77;3.07;;;6.10;99.90;;;6.85;100.00;-19960.16;5110564;28;20309;-70
2022/02/02 02:07:47;;;;;;;8.73;2.27;;;6.10;99.90;;;7.09;100.00;-19968.38;5110247;28;20270;-70
2022/02/02 02:10:15;;;;;;;13.47;2.80;;;6.20;99.90;;;7.12;100.00;-19969.38;5110371;28;20307;-70
2022/02/02 02:12:49;;;;;;;8.97;2.50;;;6.20;99.90;;;7.02;100.00;-19965.78;5110436;28;20203;-70
2022/02/02 02:15:18;;;;;;;9.10;2.10;;;6.20;99.90;;;6.95;100.00;-19963.56;5108064;28;20196;-71
2022/02/02 02:17:48;;;;;;;10.73;2.10;;;6.10;99.90;;;7.06;100.00;-19967.34;5089848;28;20413;-69
2022/02/02 02:20:17;;;;;;;11.63;2.33;;;6.20;99.90;;;7.03;100.00;-19966.31;5090094;28;20227;-68
2022/02/02 02:22:46;;;;;;;13.87;2.77;;;6.20;99.90;;;6.99;100.00;-19964.78;5089986;28;20653;-70
2022/02/02 02:25:22;;;;;;;9.60;2.23;;;6.20;99.90;;;7.02;100.00;-19965.78;5090094;28;20247;-71
2022/02/02 02:27:50;;;;;;;9.87;2.87;;;6.10;99.90;;;7.16;100.00;-19970.75;5090160;28;20298;-70
2022/02/02 02:30:27;;;;;;;9.97;2.70;;;6.20;99.90;;;7.22;100.00;-19972.63;5090576;28;20273;-71
2022/02/02 02:33:26;;;;;;;8.47;2.40;;;6.30;99.90;;;7.29;100.00;-19975.03;5090494;28;20204;-72
2022/02/02 02:39:06;;;;;;;9.50;2.50;;;6.30;99.90;;;7.11;100.00;-19968.88;5086596;28;20247;-71
2022/02/02 02:55:54;;;;;;;11.93;2.73;;;6.20;99.90;;;7.09;100.00;-19968.38;5089735;28;20331;-70
2022/02/02 02:58:43;;;;;;;12.50;2.60;;;6.20;99.90;;;7.06;100.00;-19967.34;5089973;28;20401;-70
2022/02/02 03:01:24;;;;;;;16.03;3.40;;;6.20;99.90;;;7.02;100.00;-19965.78;5103127;28;20269;-68
2022/02/02 03:31:58;;;;;;;13.20;2.97;;;6.00;99.90;;;6.90;100.00;-19961.88;5050008;28;20805;-70
2022/02/02 03:35:01;;;;;;;6.33;1.93;;;6.00;99.90;;;6.85;100.00;-19960.16;5104520;28;20714;-70
2022/02/02 03:51:35;;;;;;;7.07;1.57;;;5.80;99.90;;;6.54;100.00;-19949.41;5113010;28;20638;-62
2022/02/02 03:57:27;;;;;;;7.43;2.00;;;5.70;99.90;;;6.38;100.00;-19943.94;5030006;28;20260;-63
2022/02/02 04:03:03;;;;;;;12.67;2.03;;;5.60;99.90;;;6.55;100.00;-19949.72;5111970;28;20324;-63
2022/02/02 04:05:38;;;;;;;6.00;1.80;;;5.60;99.90;;;6.44;100.00;-19946.16;5112615;28;20726;-64
2022/02/02 04:08:19;;;;;;;4.93;1.53;;;5.60;99.90;;;6.42;100.00;-19945.47;5113042;28;20343;-63
2022/02/02 04:10:47;;;;;;;12.20;1.97;;;5.60;99.90;;;6.45;100.00;-19946.50;5112763;28;20227;-70
2022/02/02 04:13:23;;;;;;;8.97;2.07;;;5.60;99.90;;;6.37;100.00;-19943.59;5112548;28;20772;-70
2022/02/02 04:52:41;;;;;;;10.93;2.50;;;5.20;99.90;;;6.08;100.00;-19934.00;5111892;28;20645;-72
2022/02/02 04:55:21;;;;;;;7.37;1.73;;;5.20;99.90;;;6.15;100.00;-19936.41;5112136;28;20341;-63
2022/02/02 04:58:20;;;;;;;10.13;2.27;;;5.30;99.90;;;6.14;100.00;-19935.88;5111761;28;20301;-63
2022/02/02 05:04:05;;;;;;;6.50;1.70;;;5.30;99.90;;;6.09;100.00;-19934.19;5112070;28;20283;-70
2022/02/02 05:06:39;;;;;;;10.10;2.57;;;5.20;99.90;;;5.85;100.00;-19925.97;5111772;28;20215;-71
2022/02/02 05:09:22;;;;;;;9.23;2.30;;;5.20;99.90;;;5.94;100.00;-19929.06;5112748;28;20214;-71
2022/02/02 05:12:26;;;;;;;7.83;2.37;;;5.10;99.90;;;6.06;100.00;-19933.16;5111751;28;20751;-71
2022/02/02 05:20:44;;;;;;;11.73;2.30;;;5.10;99.90;;;5.89;100.00;-19927.34;5088462;28;20330;-69
2022/02/02 05:24:09;;;;;;;10.07;2.80;;;5.10;99.90;;;5.95;100.00;-19929.41;5100123;28;20848;-70
2022/02/02 05:43:33;;;;;;;10.50;2.80;;;5.50;99.90;;;6.24;100.00;-19939.31;5111026;28;20657;-71
2022/02/02 05:48:41;;;;;;;8.17;2.37;;;5.60;99.90;;;6.34;100.00;-19942.56;5111397;28;20183;-70
2022/02/02 05:51:23;;;;;;;8.57;2.23;;;5.60;99.90;;;6.27;100.00;-19940.34;5110768;28;20187;-70
2022/02/02 05:53:53;;;;;;;14.93;2.60;;;5.50;99.90;;;6.27;100.00;-19940.34;5111350;28;20199;-71
2022/02/02 05:56:21;;;;;;;10.37;2.67;;;5.50;99.90;;;6.24;100.00;-19939.31;5111029;28;20285;-70
2022/02/02 05:58:50;;;;;;;7.63;2.37;;;5.50;99.90;;;6.07;100.00;-19933.50;5111306;28;20254;-71
2022/02/02 06:01:19;;;;;;;9.40;2.37;;;5.40;99.90;;;5.96;100.00;-19929.91;5110645;28;20716;-69
2022/02/02 06:04:01;;;;;;;9.37;2.33;;;5.30;99.90;;;6.01;100.00;-19931.44;5111313;28;20692;-71
2022/02/02 06:06:31;;;;;;;6.27;2.00;;;5.30;99.90;;;6.01;100.00;-19931.44;5111366;28;20225;-70
2022/02/02 06:09:01;;;;;;;8.20;2.20;;;5.30;99.90;;;5.91;100.00;-19928.03;5112080;28;20206;-70
2022/02/02 06:11:29;;;;;;;6.07;1.60;;;5.20;99.90;;;5.83;100.00;-19925.31;5111361;28;20237;-71
2022/02/02 06:13:59;;;;;;;6.40;1.70;;;5.20;99.90;;;5.74;100.00;-19922.38;5111198;28;20280;-71
2022/02/02 06:16:30;;;;;;;5.20;2.00;;;5.10;99.90;;;5.77;100.00;-19923.41;5097704;28;20718;-71
2022/02/02 06:19:00;;;;;;;8.10;1.67;;;5.00;99.90;;;5.74;100.00;-19922.38;5095943;28;20254;-71
2022/02/02 06:21:32;;;;;;;8.30;1.60;;;5.00;99.90;;;5.59;100.00;-19917.25;5111480;28;20216;-71
2022/02/02 06:24:10;;;;;;;8.67;1.80;;;4.90;99.90;;;5.61;100.00;-19917.78;5112043;28;20658;-70
2022/02/02 06:26:41;;;;;;;6.40;1.80;;;4.90;99.90;;;5.76;100.00;-19922.91;5111082;28;20221;-71
2022/02/02 06:29:14;;;;;;;5.83;1.73;;;5.00;99.90;;;5.78;100.00;-19923.59;5111549;28;20640;-70
2022/02/02 06:31:44;;;;;;;8.47;1.40;;;4.90;99.90;;;5.71;100.00;-19921.19;5111230;28;20251;-69
2022/02/02 06:34:14;;;;;;;8.47;1.87;;;4.90;99.90;;;5.52;100.00;-19914.69;5112233;28;20222;-70
2022/02/02 06:36:43;;;;;;;7.80;1.60;;;4.90;99.90;;;5.56;100.00;-19916.06;5110946;28;20209;-70
2022/02/02 06:39:13;;;;;;;7.67;1.80;;;4.80;99.90;;;5.61;100.00;-19917.94;5112079;28;20241;-69
2022/02/02 06:41:41;;;;;;;6.70;2.07;;;4.80;99.90;;;5.60;100.00;-19917.44;5110921;28;20226;-70
2022/02/02 06:44:11;;;;;;;7.60;1.40;;;4.90;99.90;;;5.69;100.00;-19920.50;5111734;28;20275;-63
2022/02/02 06:46:40;;;;;;;6.93;1.77;;;4.90;99.90;;;5.70;100.00;-19920.84;5110933;28;20229;-64
2022/02/02 06:49:10;;;;;;;7.30;1.83;;;4.90;99.90;;;5.63;100.00;-19918.47;5111349;28;20234;-63
2022/02/02 06:51:48;;;;;;;5.77;1.77;;;4.90;99.90;;;5.70;100.00;-19920.84;5110738;28;20227;-64
2022/02/02 06:54:26;;;;;;;6.90;2.20;;;4.90;99.90;;;5.77;100.00;-19923.41;5111465;28;20224;-63
2022/02/02 06:57:06;;;;;;;7.87;2.63;;;4.90;99.90;;;5.71;100.00;-19921.19;5111004;28;20257;-62
2022/02/02 06:59:52;;;;;;;10.97;2.57;;;5.00;99.90;;;5.84;100.00;-19925.63;5110827;28;20289;-62
2022/02/02 07:02:39;;;;;;;10.60;2.63;;;5.00;99.90;;;5.92;100.00;-19928.53;5090676;28;20229;-62
2022/02/02 07:05:20;;;;;;;9.93;2.93;;;5.10;99.90;;;6.13;100.00;-19935.72;5094631;28;20234;-63
2022/02/02 07:08:18;;;;;;;12.60;3.33;;;5.20;99.90;;;6.19;100.00;-19937.59;5094309;28;20314;-63
2022/02/02 07:13:48;;;;;;;13.00;3.20;;;5.30;99.90;;;6.24;100.00;-19939.31;5090181;28;20226;-62
2022/02/02 07:16:30;;;;;;;11.33;2.60;;;5.40;99.90;;;6.33;100.00;-19942.38;5103355;27;20655;-63
2022/02/02 07:19:10;;;;;;;8.50;2.80;;;5.40;99.90;;;6.42;100.00;-19945.47;5094464;28;20307;-63
2022/02/02 07:21:59;;;;;;;8.80;2.50;;;5.50;99.90;;;6.46;100.00;-19946.66;5094227;28;20634;-62
2022/02/02 07:24:51;;;;;;;12.13;3.27;;;5.50;99.90;;;6.41;100.00;-19944.94;5113560;28;20223;-63
2022/02/02 07:30:21;;;;;;;9.50;2.80;;;5.60;99.90;;;6.50;100.00;-19948.19;5114331;28;20306;-63
2022/02/02 07:33:07;;;;;;;7.50;2.53;;;5.60;99.90;;;6.42;100.00;-19945.47;5114550;28;20254;-63
2022/02/02 07:36:02;;;;;;;12.63;2.67;;;5.60;99.90;;;6.47;100.00;-19947.19;5114180;28;20227;-63
2022/02/02 07:38:45;;;;;;;9.17;2.90;;;5.60;99.90;;;6.43;100.00;-19945.81;5114499;28;20280;-61
2022/02/02 07:41:25;;;;;;;12.23;3.13;;;5.60;99.90;;;6.56;100.00;-19950.25;5114147;28;20215;-69
2022/02/02 07:44:04;;;;;;;9.93;2.70;;;5.60;99.90;;;6.63;100.00;-19952.47;5114205;28;20736;-70
2022/02/02 07:46:34;;;;;;;10.43;2.97;;;5.70;99.90;;;6.75;100.00;-19956.56;5113341;28;20234;-62
2022/02/02 07:49:07;;;;;;;11.47;3.43;;;5.80;99.90;;;6.77;100.00;-19957.44;5114000;28;20302;-62
2022/02/02 07:51:41;;;;;;;7.53;2.40;;;5.80;99.90;;;6.72;100.00;-19955.53;5113772;28;20184;-63
2022/02/02 07:54:17;;;;;;;10.33;2.90;;;5.80;99.90;;;6.83;100.00;-19959.47;5113847;28;20207;-62
2022/02/02 07:56:58;;;;;;;12.53;3.00;;;5.90;99.90;;;6.84;100.00;-19959.66;5113853;28;20252;-62
2022/02/02 07:59:39;;;;;;;15.87;3.40;;;5.90;99.90;;;6.79;100.00;-19958.13;5113023;28;21136;-64
2022/02/02 08:02:07;;;;;;;12.07;2.70;;;5.90;99.90;;;6.76;100.00;-19957.09;5094671;28;20431;-64
2022/02/02 08:04:37;;;;;;;14.73;3.27;;;5.90;99.90;;;6.73;100.00;-19956.06;5095031;28;20226;-65
2022/02/02 08:07:11;;;;;;;9.57;2.63;;;5.90;99.90;;;6.76;100.00;-19957.09;5113290;28;20227;-66
2022/02/02 08:09:45;;;;;;;8.33;2.73;;;5.90;99.90;;;6.76;100.00;-19957.09;5105683;28;20222;-64
2022/02/02 08:12:17;;;;;;;12.13;2.77;;;5.90;99.90;;;6.77;100.00;-19957.44;5093534;28;20276;-64
2022/02/02 08:14:54;;;;;;;12.47;2.67;;;5.90;99.90;;;6.99;100.00;-19964.94;5093291;28;20751;-63
2022/02/02 08:17:22;;;;;;;10.17;2.77;;;6.00;99.90;;;6.94;100.00;-19963.06;5093274;28;20590;-58
2022/02/02 08:19:52;;;;;;;11.40;2.90;;;6.00;99.90;;;7.03;100.00;-19966.31;5113449;28;20314;-58
2022/02/02 08:22:20;;;;;;;11.33;2.83;;;6.00;99.90;;;6.96;100.00;-19963.75;5113354;28;20738;-71
2022/02/02 08:24:48;;;;;;;12.13;2.27;;;6.10;99.90;;;7.00;100.00;-19965.28;5113501;28;20759;-70
2022/02/02 08:27:16;;;;;;;13.33;2.40;;;6.10;99.90;;;7.12;100.00;-19969.38;5113506;28;20328;-69
2022/02/02 08:29:44;;;;;;;10.30;2.83;;;6.10;99.90;;;7.06;100.00;-19967.34;5114092;28;20199;-69
2022/02/02 08:32:14;;;;;;;10.30;2.53;;;6.20;99.90;;;7.20;100.00;-19971.94;5113416;28;20257;-68
2022/02/02 08:34:49;;;;;;;6.40;2.53;;;6.20;99.90;;;7.29;100.00;-19975.19;5110167;28;20714;-70
2022/02/02 08:37:19;;;;;;;9.47;2.50;;;6.30;99.90;;;7.33;100.00;-19976.56;5092822;28;20231;-69
2022/02/02 08:40:00;;;;;;;10.40;2.80;;;6.40;99.90;;;7.30;100.00;-19975.53;5093327;28;20299;-69
2022/02/02 08:42:31;;;;;;;10.67;3.37;;;6.40;99.90;;;7.42;100.00;-19979.63;5093013;28;20188;-71
2022/02/02 08:45:16;;;;;;;12.43;2.63;;;6.40;99.90;;;7.43;100.00;-19979.97;5093497;28;20262;-71
2022/02/02 08:47:50;;;;;;;11.53;3.37;;;6.40;99.90;;;7.30;100.00;-19975.38;5092995;28;20250;-72
2022/02/02 08:50:26;;;;;;;8.83;2.00;;;6.40;99.90;;;7.28;100.00;-19974.84;5092673;28;20227;-75
2022/02/02 08:53:01;;;;;;;7.27;2.70;;;6.40;99.90;;;7.41;100.00;-19979.13;5092762;28;20310;-71
2022/02/02 08:58:31;;;;;;;10.13;2.57;;;6.50;99.90;;;7.42;100.00;-19979.47;5068960;27;20623;-71
2022/02/02 09:01:03;;;;;;;10.60;2.30;;;6.40;99.90;;;7.41;100.00;-19979.31;5027954;28;20245;-65
2022/02/02 09:06:17;;;;;;;10.33;2.60;;;6.50;99.90;;;7.51;100.00;-19982.53;5027623;28;20632;-61
2022/02/02 09:08:47;;;;;;;8.50;2.63;;;6.60;99.90;;;7.67;100.00;-19987.84;5028279;28;20212;-62
2022/02/02 09:25:23;;;;;;;7.80;2.43;;;6.70;99.90;;;7.72;100.00;-19989.72;5014843;28;20320;-64
2022/02/02 09:33:51;;;;;;;7.13;1.70;;;6.80;99.90;;;7.94;100.00;-19997.06;5047423;28;20293;-63
2022/02/02 09:36:22;;;;;;;10.77;2.47;;;6.90;99.90;;;7.90;100.00;-19995.88;5046690;28;20201;-66
2022/02/02 09:38:53;;;;;;;6.40;2.00;;;6.90;99.90;;;8.04;100.00;-20000.47;5047686;28;20217;-67
2022/02/02 09:41:37;;;;;;;9.07;2.00;;;6.90;99.90;;;8.03;100.00;-20000.16;5047161;28;20252;-67
2022/02/02 09:44:08;;;;;;;12.93;2.60;;;7.00;99.90;;;8.15;100.00;-20004.41;5047210;28;20317;-62
2022/02/02 09:46:48;;;;;;;11.33;2.17;;;7.00;99.90;;;8.22;100.00;-20006.63;5046746;28;20221;-62
2022/02/02 09:49:23;;;;;;;11.93;2.93;;;7.00;99.90;;;8.11;100.00;-20002.88;5047114;28;20256;-64
2022/02/02 09:51:57;;;;;;;7.33;2.60;;;7.10;99.90;;;7.99;100.00;-19998.94;5046447;28;20669;-62
2022/02/02 09:54:35;;;;;;;8.07;2.10;;;7.00;99.90;;;8.15;100.00;-20004.25;5046434;28;20629;-62
2022/02/02 10:00:21;;;;;;;6.97;2.77;;;7.00;99.90;;;7.79;100.00;-19991.94;5047416;28;20979;-73
2022/02/02 10:03:23;;;;;;;7.63;2.53;;;7.00;99.90;;;8.09;100.00;-20002.19;5027477;28;20289;-74
2022/02/02 10:06:06;;;;;;;6.57;1.60;;;7.00;99.90;;;7.89;100.00;-19995.34;5026510;28;20249;-60
2022/02/02 10:12:04;;;;;;;8.83;1.77;;;6.80;99.90;;;7.28;100.00;-19974.69;5022619;28;20248;-60
2022/02/02 10:14:39;;;;;;;8.83;2.10;;;6.60;99.90;;;7.11;100.00;-19969.03;5033179;28;20256;-62
2022/02/02 10:17:12;;;;;;;9.40;2.40;;;6.40;99.90;;;7.09;100.00;-19968.38;5033052;28;20226;-63
2022/02/02 10:19:41;;;;;;;7.83;2.20;;;6.30;99.90;;;7.34;100.00;-19976.91;5033247;28;20272;-65
2022/02/02 10:22:27;;;;;;;8.57;2.60;;;6.40;99.90;;;7.61;100.00;-19985.78;5032878;28;20222;-63
2022/02/02 10:25:00;;;;;;;6.47;2.40;;;6.60;99.90;;;7.59;100.00;-19985.09;5032907;28;20256;-64
2022/02/02 10:27:34;;;;;;;7.13;2.37;;;6.60;99.90;;;7.49;100.00;-19981.88;5032668;28;20189;-64
2022/02/02 10:30:17;;;;;;;4.60;1.73;;;6.60;99.90;;;7.28;100.00;-19974.84;5033160;28;20194;-64
2022/02/02 10:32:48;;;;;;;3.67;1.30;;;6.50;99.90;;;7.15;100.00;-19970.25;5033056;28;20217;-69
2022/02/02 10:35:35;;;;;;;4.13;1.33;;;6.30;99.90;;;7.29;100.00;-19975.19;5032780;28;20226;-69
2022/02/02 10:38:26;;;;;;;5.53;1.27;;;6.40;99.90;;;7.30;100.00;-19975.53;5032532;28;20226;-70
2022/02/02 10:41:06;;;;;;;4.20;1.20;;;6.40;99.90;;;7.65;100.00;-19987.16;5032983;28;20249;-65
2022/02/02 10:43:41;;;;;;;5.40;2.07;;;6.60;99.90;;;7.72;100.00;-19989.56;5032947;28;20276;-68
2022/02/02 10:46:14;;;;;;;4.93;1.57;;;6.70;99.90;;;7.92;100.00;-19996.38;5033033;28;20248;-66
2022/02/02 10:48:47;;;;;;;5.73;1.70;;;6.80;99.90;;;8.24;100.00;-20007.31;5032760;28;20793;-68
2022/02/02 10:51:31;;;;;;;6.80;2.33;;;7.10;99.90;;;8.46;100.00;-20014.84;5033178;28;20198;-68
2022/02/02 10:54:14;;;;;;;8.87;2.20;;;7.10;99.90;;;8.56;100.00;-20018.25;5031378;28;20550;-66
2022/02/02 10:56:50;;;;;;;7.47;2.07;;;7.20;99.90;;;8.27;100.00;-20008.34;5012785;28;20289;-66
2022/02/02 10:59:43;;;;;;;5.23;1.80;;;7.20;99.90;;;7.99;100.00;-19998.94;5029553;28;20313;-64
2022/02/02 11:07:45;;;;;;;8.00;2.00;;;6.90;99.90;;;7.95;100.00;-19997.41;5031985;28;20233;-66
2022/02/02 11:10:13;;;;;;;8.87;2.50;;;6.90;99.90;;;7.82;99.14;-19993.13;5032035;28;20766;-64
2022/02/02 11:12:47;;;;;;;9.53;2.20;;;6.90;99.90;;;7.93;98.73;-19996.72;5032152;28;20321;-64
2022/02/02 11:15:29;;;;;;;7.47;1.87;;;6.90;99.90;;;8.00;96.53;-19999.13;5032514;28;20651;-67
2022/02/02 11:18:12;;;;;;;8.67;2.30;;;7.00;99.90;;;8.14;92.48;-20004.06;5031271;28;20312;-65
2022/02/02 11:20:41;;;;;;;3.83;1.30;;;7.00;99.90;;;8.26;90.94;-20008.19;5030756;28;20226;-65
2022/02/02 11:23:11;;;;;;;5.20;1.93;;;7.10;99.90;;;8.18;89.54;-20005.44;5031628;28;20576;-65
2022/02/02 11:25:59;;;;;;;6.03;2.27;;;7.20;99.90;;;8.18;90.15;-20005.44;5031811;28;20257;-64
2022/02/02 11:28:33;;;;;;;8.37;2.03;;;7.20;99.90;;;8.28;89.86;-20008.88;5031648;28;20689;-65
2022/02/02 11:31:14;;;;;;;5.60;1.80;;;7.20;99.90;;;8.13;89.35;-20003.72;5031496;28;20272;-65
2022/02/02 11:33:50;;;;;;;5.73;1.53;;;7.20;99.90;;;8.16;89.55;-20004.59;5031669;28;20225;-55
2022/02/02 11:36:30;;;;;;;3.93;1.50;;;7.20;99.90;;;8.19;92.21;-20005.78;5031470;28;20228;-54
2022/02/02 11:39:03;;;;;;;6.53;2.20;;;7.10;99.90;;;8.11;93.14;-20002.88;5031873;28;20633;-57
2022/02/02 11:41:58;;;;;;;3.90;1.73;;;7.10;99.90;;;7.97;94.75;-19998.09;5012569;28;20273;-57
2022/02/02 11:44:43;;;;;;;8.27;2.30;;;7.10;99.90;;;7.92;93.01;-19996.38;5011121;28;20317;-53
2022/02/02 11:47:41;;;;;;;6.20;1.57;;;7.00;99.90;;;8.03;93.69;-20000.31;5011394;28;20227;-67
2022/02/02 11:50:09;;;;;;;7.23;2.03;;;7.00;99.90;;;8.03;92.73;-20000.31;5011561;28;20352;-66
2022/02/02 11:52:44;;;;;;;7.70;2.10;;;7.10;99.90;;;8.03;93.87;-20000.16;5011474;28;20231;-69
2022/02/02 11:55:43;;;;;;;7.47;1.67;;;7.10;99.90;;;8.19;94.03;-20005.59;5011525;28;20226;-67
2022/02/02 11:58:26;;;;;;;6.47;1.90;;;7.10;99.90;;;8.08;93.93;-20001.84;5018370;28;20237;-75
2022/02/02 12:01:06;;;;;;;6.20;1.53;;;7.10;99.90;;;7.99;95.80;-19998.94;5031847;28;20218;-76
2022/02/02 12:03:52;;;;;;;8.15;2.10;;;7.10;99.90;;;7.67;97.96;-19988.00;5030903;28;20941;-67
2022/02/02 12:09:21;;;;;;;8.23;2.20;;;6.90;99.90;;;8.09;91.43;-20002.38;5027558;28;20225;-68
2022/02/02 12:48:58;;;;;;;9.00;2.03;;;7.00;99.90;;;7.52;100.00;-19982.72;5010680;28;20281;-72
2022/02/02 12:57:06;;;;;;;6.73;2.10;;;6.80;99.90;;;7.49;100.00;-19981.69;5010078;28;20244;-70
2022/02/02 12:59:53;;;;;;;5.20;1.80;;;6.70;99.90;;;7.43;100.00;-19979.81;5028936;28;20309;-60
2022/02/02 13:02:24;;;;;;;9.70;2.00;;;6.60;99.90;;;7.05;100.00;-19967.00;5029801;28;20264;-70
2022/02/02 13:04:55;;;;;;;7.17;1.93;;;6.40;99.90;;;6.79;100.00;-19958.13;5016681;28;20653;-71
2022/02/02 13:07:31;;;;;;;5.67;2.20;;;6.20;99.90;;;6.39;100.00;-19944.28;5010465;28;20222;-70
2022/02/02 13:10:04;;;;;;;4.17;1.70;;;5.80;99.90;;;6.28;100.00;-19940.69;5010376;28;20309;-70
2022/02/02 13:12:35;;;;;;;3.70;1.60;;;5.70;99.90;;;6.33;100.00;-19942.38;5009887;28;20210;-71
2022/02/02 13:18:08;;;;;;;7.37;1.53;;;5.50;99.90;;;6.04;100.00;-19932.47;5023457;28;20244;-69
2022/02/02 13:20:54;;;;;;;5.80;1.20;;;5.50;99.90;;;6.01;100.00;-19931.63;5010728;28;20260;-71
2022/02/02 13:23:37;;;;;;;3.93;1.40;;;5.50;99.90;;;6.39;100.00;-19944.44;5010510;28;20234;-71
2022/02/02 13:26:18;;;;;;;6.40;1.37;;;5.60;99.90;;;6.77;100.00;-19957.44;5009984;28;20226;-71
2022/02/02 13:28:56;;;;;;;5.80;1.20;;;5.80;99.90;;;7.20;100.00;-19972.13;5010057;28;20744;-72
2022/02/02 13:31:35;;;;;;;6.33;1.40;;;6.10;99.90;;;7.26;100.00;-19974.00;5009639;28;20253;-72
2022/02/02 13:34:19;;;;;;;2.50;1.30;;;6.30;99.90;;;7.49;100.00;-19981.69;5009708;28;20271;-72
2022/02/02 13:37:16;;;;;;;5.53;1.70;;;6.50;99.90;;;7.44;100.00;-19980.31;5009352;28;20718;-71
2022/02/02 13:42:55;;;;;;;5.27;1.70;;;6.40;99.90;;;7.27;100.00;-19974.34;5000692;28;20667;-71
2022/02/02 13:45:45;;;;;;;4.70;1.43;;;6.40;99.90;;;7.43;100.00;-19979.97;5010338;28;20621;-71
2022/02/02 13:51:13;;;;;;;5.77;1.33;;;6.60;99.90;;;7.53;100.00;-19983.22;4997023;28;20223;-71
2022/02/02 13:59:42;;;;;;;5.17;1.63;;;6.50;99.90;;;7.64;100.00;-19986.81;5018401;28;20320;-73
2022/02/02 14:03:45;;;;;;;5.37;1.40;;;6.60;99.90;;;7.47;99.45;-19981.19;5033709;28;20222;-72
2022/02/02 14:08:14;;;;;;;3.67;1.30;;;6.70;99.90;;;7.68;99.25;-19988.19;5033356;28;20240;-71
2022/02/02 14:11:26;;;;;;;6.43;1.53;;;6.70;99.90;;;7.93;98.98;-19996.72;5013450;28;20254;-71
2022/02/02 14:33:51;;;;;;;5.97;1.40;;;6.40;99.90;;;6.90;100.00;-19961.69;5052742;28;20231;-69
2022/02/02 14:36:23;;;;;;;4.77;1.40;;;6.20;99.90;;;6.96;100.00;-19963.75;5044379;28;20212;-69
2022/02/02 14:38:56;;;;;;;7.73;1.60;;;6.20;99.90;;;6.85;100.00;-19960.16;5053145;28;20252;-70
2022/02/02 14:41:35;;;;;;;4.80;1.20;;;6.10;99.90;;;6.84;100.00;-19959.81;5046485;28;20218;-67
2022/02/02 14:44:09;;;;;;;4.97;1.37;;;6.00;99.90;;;7.04;100.00;-19966.66;5072235;28;20288;-68
2022/02/02 14:46:42;;;;;;;7.70;1.77;;;6.10;99.90;;;6.96;100.00;-19963.91;5071791;28;20327;-68
2022/02/02 14:49:14;;;;;;;4.17;1.40;;;6.00;99.90;;;6.91;100.00;-19962.03;5072573;28;20568;-69
2022/02/02 14:51:58;;;;;;;5.77;1.97;;;6.00;99.90;;;7.03;100.00;-19966.16;5072606;28;20220;-69
2022/02/02 14:54:40;;;;;;;5.97;1.50;;;6.00;99.90;;;6.95;100.00;-19963.56;5072217;28;20181;-68
2022/02/02 15:28:46;;;;;;;5.27;1.60;;;5.20;99.90;;;6.07;100.00;-19933.50;5029078;28;20229;-63
2022/02/02 15:31:16;;;;;;;3.53;1.00;;;5.30;99.90;;;6.24;100.00;-19939.16;5060189;28;20299;-67
2022/02/02 15:33:48;;;;;;;5.13;1.20;;;5.30;99.90;;;6.15;100.00;-19936.25;5071498;28;20299;-63
2022/02/02 15:36:54;;;;;;;2.77;1.20;;;5.30;99.90;;;6.29;100.00;-19941.03;5071560;28;20188;-65
2022/02/02 15:39:20;;;;;;;4.10;1.43;;;5.30;99.90;;;6.16;100.00;-19936.75;5071050;28;20767;-63
2022/02/02 15:42:05;;;;;;;3.50;1.50;;;5.40;99.90;;;6.30;100.00;-19941.38;5071496;28;20200;-61
2022/02/02 15:56:33;;;;;;;2.53;1.20;;;5.20;99.90;;;5.99;100.00;-19930.75;5070765;28;20255;-62
2022/02/02 15:58:48;;;;;;;5.63;1.60;;;5.20;99.90;;;5.95;100.00;-19929.56;5070506;28;20236;-64
2022/02/02 16:04:23;;;;;;;4.17;1.50;;;5.20;99.90;;;6.19;100.00;-19937.78;5008283;28;20745;-67
2022/02/02 16:06:54;;;;;;;3.03;1.50;;;5.20;99.90;;;6.02;100.00;-19931.78;5007909;28;20249;-63
2022/02/02 16:09:26;;;;;;;3.87;1.17;;;5.20;99.90;;;5.98;100.00;-19930.44;5040057;28;20207;-62
2022/02/02 16:12:07;;;;;;;4.93;1.50;;;5.20;99.90;;;6.15;100.00;-19936.41;5070609;28;20280;-60
2022/02/02 16:14:41;;;;;;;4.10;1.50;;;5.30;99.90;;;6.09;100.00;-19934.34;5070455;28;20247;-61
2022/02/02 16:17:33;;;;;;;5.87;1.30;;;5.30;99.90;;;6.16;100.00;-19936.56;5070312;28;20230;-61
2022/02/02 16:34:41;;;;;;;3.33;1.20;;;5.30;99.90;;;6.06;100.00;-19933.16;5069999;28;20223;-62